Time;durP1;ratioP1;P1;durP2;ratioP2;P2;SDS_P1;SDS_P2;PMS_P1;PMS_P2;Temp;Humidity;BMP_temperature;BMP_pressure;BME280_temperature;BME280_humidity;BME280_pressure;Samples;Min_cycle;Max_cycle;Signal;HPM_P1;HPM_P2
2023/08/12 00:01:21;;;;;;;25.05;13.63;;;;;;;20.24;100.00;101691.91;5084362;28;20059;-69
2023/08/12 00:03:48;;;;;;;24.02;12.82;;;;;;;20.24;100.00;101688.38;5082398;28;20020;-69
2023/08/12 00:06:13;;;;;;;26.45;14.23;;;;;;;20.23;100.00;101682.13;5082480;28;20028;-69
2023/08/12 00:08:38;;;;;;;22.90;12.73;;;;;;;20.23;100.00;101686.72;5083004;28;20028;-69
2023/08/12 00:11:04;;;;;;;23.02;12.68;;;;;;;20.20;100.00;101682.63;5073923;28;20021;-69
2023/08/12 00:13:29;;;;;;;24.00;12.63;;;;;;;20.21;100.00;101686.97;5086396;28;20485;-69
2023/08/12 00:15:55;;;;;;;23.95;14.50;;;;;;;20.20;100.00;101688.03;5078088;28;20480;-69
2023/08/12 00:18:22;;;;;;;24.73;14.60;;;;;;;20.23;100.00;101692.16;5079394;28;20479;-69
2023/08/12 00:20:47;;;;;;;23.83;13.20;;;;;;;20.23;100.00;101692.16;5085613;28;20036;-69
2023/08/12 00:23:12;;;;;;;24.88;13.40;;;;;;;20.24;100.00;101685.66;5085715;28;20024;-69
2023/08/12 00:25:38;;;;;;;22.85;15.02;;;;;;;20.24;100.00;101685.66;5071090;28;20032;-69
2023/08/12 00:28:03;;;;;;;25.65;15.52;;;;;;;20.26;100.00;101680.81;5077529;28;20032;-69
2023/08/12 00:30:29;;;;;;;25.58;16.92;;;;;;;20.23;100.00;101671.28;5079667;28;20039;-69
2023/08/12 00:32:54;;;;;;;22.35;12.48;;;;;;;20.23;100.00;101667.78;5082150;28;20032;-69
2023/08/12 00:35:19;;;;;;;23.35;14.00;;;;;;;20.25;100.00;101665.63;5074996;28;20089;-69
2023/08/12 00:37:45;;;;;;;26.15;14.63;;;;;;;20.24;100.00;101666.69;5076933;28;20048;-69
2023/08/12 00:40:11;;;;;;;24.95;15.35;;;;;;;20.23;100.00;101663.16;5078109;28;20039;-69
2023/08/12 00:42:36;;;;;;;25.15;13.95;;;;;;;20.22;100.00;101664.22;5081769;28;20024;-69
2023/08/12 00:45:01;;;;;;;26.13;14.43;;;;;;;20.18;100.00;101654.94;5077404;28;20123;-69
2023/08/12 00:47:30;;;;;;;22.60;14.75;;;;;;;20.16;100.00;101650.81;5077104;28;20021;-69
2023/08/12 00:49:57;;;;;;;23.30;13.75;;;;;;;20.16;100.00;101645.41;5085921;28;20024;-69
2023/08/12 00:52:23;;;;;;;24.25;15.02;;;;;;;20.12;100.00;101639.63;5077458;28;20033;-69
2023/08/12 00:54:48;;;;;;;24.35;15.48;;;;;;;20.09;100.00;101637.41;5081019;28;20024;-69
2023/08/12 00:57:14;;;;;;;25.23;15.95;;;;;;;20.08;100.00;101650.13;5075972;28;20119;-69
2023/08/12 00:59:43;;;;;;;23.95;15.48;;;;;;;20.09;100.00;101643.66;5069503;28;20510;-69
2023/08/12 01:02:09;;;;;;;23.30;15.68;;;;;;;20.09;100.00;101645.53;5069322;28;20068;-69
2023/08/12 01:04:34;;;;;;;25.30;17.02;;;;;;;20.08;100.00;101642.00;5086441;28;20059;-69
2023/08/12 01:07:00;;;;;;;28.17;16.15;;;;;;;20.08;100.00;101641.19;5075736;28;20025;-69
2023/08/12 01:09:25;;;;;;;24.77;15.57;;;;;;;20.07;100.00;101640.38;5087618;28;20024;-69
2023/08/12 01:12:16;;;;;;;22.60;15.55;;;;;;;20.10;100.00;101634.47;5076971;28;20115;-69
2023/08/12 01:14:56;;;;;;;28.30;16.42;;;;;;;20.10;100.00;101630.94;5086078;28;20122;-69
2023/08/12 01:17:22;;;;;;;25.30;16.42;;;;;;;20.09;100.00;101632.00;5076389;28;20024;-69
2023/08/12 01:19:48;;;;;;;26.35;17.60;;;;;;;20.08;100.00;101620.34;5073160;28;20110;-69
2023/08/12 01:22:16;;;;;;;26.35;16.52;;;;;;;20.08;100.00;101620.34;5075508;28;20032;-69
2023/08/12 01:24:44;;;;;;;24.73;16.40;;;;;;;20.08;100.00;101620.34;5088221;28;20030;-69
2023/08/12 01:27:12;;;;;;;25.13;16.48;;;;;;;20.06;100.00;101617.06;5073009;28;20128;-69
2023/08/12 01:29:49;;;;;;;29.92;18.63;;;;;;;20.06;100.00;101611.63;5088644;28;20044;-69
2023/08/12 01:32:37;;;;;;;27.85;17.27;;;;;;;20.05;100.00;101607.28;5079400;28;20044;-69
2023/08/12 01:35:11;;;;;;;28.13;17.45;;;;;;;20.03;100.00;101604.00;5080518;28;20028;-69
2023/08/12 01:37:39;;;;;;;27.13;16.77;;;;;;;20.01;100.00;101608.81;5084638;28;20052;-69
2023/08/12 01:40:06;;;;;;;26.35;16.95;;;;;;;20.02;100.00;101594.25;5089558;28;20532;-69
2023/08/12 01:42:35;;;;;;;25.02;17.58;;;;;;;20.01;100.00;101594.47;5083410;28;20025;-69
2023/08/12 01:45:01;;;;;;;26.13;16.10;;;;;;;20.00;100.00;101587.41;5075320;28;20057;-69
2023/08/12 01:47:27;;;;;;;25.10;15.77;;;;;;;19.98;100.00;101589.53;5083740;28;20085;-69
2023/08/12 01:49:53;;;;;;;26.10;17.73;;;;;;;19.99;100.00;101583.91;5089837;28;20487;-69
2023/08/12 01:52:18;;;;;;;25.15;15.95;;;;;;;19.98;100.00;101582.25;5084239;28;20037;-69
2023/08/12 01:54:43;;;;;;;24.95;16.48;;;;;;;19.99;100.00;101592.03;5089336;28;20040;-69
2023/08/12 01:57:09;;;;;;;24.45;16.58;;;;;;;20.00;100.00;101590.13;5080171;28;20032;-69
2023/08/12 01:59:35;;;;;;;25.67;17.05;;;;;;;19.99;100.00;101591.19;5078480;28;20575;-69
2023/08/12 02:02:01;;;;;;;26.33;16.40;;;;;;;20.02;100.00;101579.88;5082005;28;20502;-69
2023/08/12 02:04:27;;;;;;;33.05;17.55;;;;;;;20.03;100.00;101584.22;5078032;28;20032;-69
2023/08/12 02:06:53;;;;;;;24.88;16.73;;;;;;;20.01;100.00;101573.63;5072559;28;20040;-69
2023/08/12 02:09:18;;;;;;;27.13;17.02;;;;;;;20.03;100.00;101578.81;5085370;28;20032;-69
2023/08/12 02:11:44;;;;;;;26.48;15.57;;;;;;;20.04;100.00;101580.44;5077070;28;20028;-69
2023/08/12 02:14:09;;;;;;;23.92;14.75;;;;;;;20.03;100.00;101581.53;5074425;28;20060;-69
2023/08/12 02:16:35;;;;;;;22.42;15.07;;;;;;;20.04;100.00;101575.88;5091412;28;20036;-69
2023/08/12 02:19:00;;;;;;;23.88;15.32;;;;;;;20.03;100.00;101576.09;5076616;28;20024;-69
2023/08/12 02:21:25;;;;;;;24.67;14.88;;;;;;;20.06;100.00;101572.91;5087968;28;20475;-69
2023/08/12 02:23:51;;;;;;;24.08;13.65;;;;;;;20.06;100.00;101576.44;5079233;28;20131;-70
2023/08/12 02:26:16;;;;;;;21.45;12.35;;;;;;;20.01;100.00;101573.63;5076833;28;20036;-69
2023/08/12 02:28:41;;;;;;;21.88;13.63;;;;;;;20.00;100.00;101569.28;5083026;28;20028;-69
2023/08/12 02:31:07;;;;;;;20.92;11.00;;;;;;;20.02;100.00;101567.16;5083957;28;20451;-69
2023/08/12 02:33:32;;;;;;;22.02;11.18;;;;;;;20.01;100.00;101565.50;5079479;28;20040;-69
2023/08/12 02:35:57;;;;;;;20.63;10.90;;;;;;;19.99;100.00;101567.66;5080792;28;20028;-69
2023/08/12 02:38:23;;;;;;;25.60;12.20;;;;;;;19.99;100.00;101561.38;5086784;28;20060;-69
2023/08/12 02:40:49;;;;;;;18.88;10.60;;;;;;;19.97;100.00;101553.53;5081152;28;20047;-69
2023/08/12 02:43:15;;;;;;;17.73;10.18;;;;;;;19.93;100.00;101561.28;5081662;28;20024;-69
2023/08/12 02:45:40;;;;;;;20.05;11.50;;;;;;;19.93;100.00;101547.75;5079003;28;20028;-69
2023/08/12 02:48:06;;;;;;;18.95;11.52;;;;;;;19.92;100.00;101542.59;5089925;28;20588;-69
2023/08/12 02:50:31;;;;;;;19.65;11.55;;;;;;;19.94;100.00;101543.19;5077322;28;20388;-69
2023/08/12 02:52:57;;;;;;;19.30;9.77;;;;;;;19.95;100.00;101547.53;5085487;28;20658;-69
2023/08/12 02:55:22;;;;;;;24.75;11.00;;;;;;;19.96;100.00;101540.22;5084516;28;20387;-69
2023/08/12 02:57:48;;;;;;;18.55;9.95;;;;;;;19.93;100.00;101528.81;5075429;28;20043;-69
2023/08/12 03:00:13;;;;;;;20.17;10.32;;;;;;;19.89;100.00;101533.06;5085780;28;20539;-69
2023/08/12 03:02:42;;;;;;;17.83;9.63;;;;;;;19.91;100.00;101533.66;5077480;28;20403;-69
2023/08/12 03:05:08;;;;;;;16.85;10.55;;;;;;;19.90;100.00;101529.28;5078449;28;20432;-69
2023/08/12 03:07:33;;;;;;;23.88;11.30;;;;;;;19.89;100.00;101519.53;5084637;28;20115;-69
2023/08/12 03:09:59;;;;;;;20.55;11.73;;;;;;;19.88;100.00;101515.16;5089564;28;20395;-69
2023/08/12 03:12:24;;;;;;;21.80;10.00;;;;;;;19.89;100.00;101521.44;5082964;28;20032;-69
2023/08/12 03:14:49;;;;;;;16.13;9.68;;;;;;;19.87;100.00;101518.13;5079257;28;20028;-69
2023/08/12 03:17:15;;;;;;;18.02;9.38;;;;;;;19.86;100.00;101516.50;5081297;28;20032;-69
2023/08/12 03:19:40;;;;;;;19.80;11.23;;;;;;;19.84;100.00;101514.03;5087495;28;20047;-69
2023/08/12 03:22:06;;;;;;;17.08;10.85;;;;;;;19.85;100.00;101504.00;5076285;28;20511;-69
2023/08/12 03:24:31;;;;;;;19.02;11.65;;;;;;;19.86;100.00;101505.69;5086107;28;20036;-69
2023/08/12 03:26:56;;;;;;;19.73;10.45;;;;;;;19.82;100.00;101508.03;5085476;28;20032;-69
2023/08/12 03:29:22;;;;;;;19.73;10.70;;;;;;;19.81;100.00;101509.09;5080592;28;20028;-69
2023/08/12 03:31:47;;;;;;;18.85;10.32;;;;;;;19.80;100.00;101502.03;5082617;28;20395;-69
2023/08/12 03:34:12;;;;;;;19.48;9.73;;;;;;;19.78;100.00;101495.22;5072590;28;20033;-69
2023/08/12 03:36:37;;;;;;;15.05;9.43;;;;;;;19.81;100.00;101492.03;5083225;28;20120;-69
2023/08/12 03:39:03;;;;;;;23.15;9.68;;;;;;;19.77;100.00;101483.56;5086550;28;20108;-69
2023/08/12 03:41:29;;;;;;;18.70;9.38;;;;;;;19.79;100.00;101486.84;5085868;28;20039;-69
2023/08/12 03:43:54;;;;;;;19.92;9.85;;;;;;;19.78;100.00;101490.66;5073304;28;20056;-69
2023/08/12 03:46:20;;;;;;;16.00;8.23;;;;;;;19.75;100.00;101482.97;5080050;28;20028;-69
2023/08/12 03:48:45;;;;;;;17.02;8.60;;;;;;;19.74;100.00;101480.53;5070184;28;20545;-69
2023/08/12 03:51:10;;;;;;;15.27;9.60;;;;;;;19.69;100.00;101470.44;5071515;28;20040;-69
2023/08/12 03:53:36;;;;;;;15.27;9.02;;;;;;;19.70;100.00;101467.50;5084371;28;20438;-69
2023/08/12 03:56:01;;;;;;;20.08;9.90;;;;;;;19.69;100.00;101481.25;5084752;28;20032;-69
2023/08/12 03:58:26;;;;;;;16.35;9.65;;;;;;;19.70;100.00;101486.44;5078718;28;20027;-69
2023/08/12 04:00:52;;;;;;;17.55;9.73;;;;;;;19.71;100.00;101481.84;5076095;28;20506;-69
2023/08/12 04:03:17;;;;;;;20.65;9.50;;;;;;;19.67;100.00;101486.91;5086011;28;20515;-69
2023/08/12 04:05:52;;;;;;;14.60;8.15;;;;;;;19.66;100.00;101479.84;5071975;28;20907;-69
2023/08/12 04:08:25;;;;;;;12.77;7.50;;;;;;;19.62;100.00;101472.41;5084460;28;20483;-69
2023/08/12 04:10:53;;;;;;;15.35;7.68;;;;;;;19.58;100.00;101466.69;5075899;28;20027;-69
2023/08/12 04:13:19;;;;;;;14.88;6.93;;;;;;;19.56;100.00;101465.28;5085315;28;20395;-69
2023/08/12 04:15:49;;;;;;;14.65;7.68;;;;;;;19.52;100.00;101470.38;5075213;28;20039;-69
2023/08/12 04:18:15;;;;;;;12.55;5.90;;;;;;;19.53;100.00;101472.00;5089088;28;20028;-69
2023/08/12 04:20:40;;;;;;;12.57;6.63;;;;;;;19.52;100.00;101464.09;5075932;28;20027;-69
2023/08/12 04:23:05;;;;;;;14.63;6.57;;;;;;;19.49;100.00;101473.53;5088567;28;20333;-69
2023/08/12 04:25:31;;;;;;;13.63;5.90;;;;;;;19.49;100.00;101466.25;5082345;28;20059;-69
2023/08/12 04:27:56;;;;;;;12.13;6.43;;;;;;;19.52;100.00;101462.25;5072748;28;20032;-69
2023/08/12 04:30:21;;;;;;;12.98;6.70;;;;;;;19.52;100.00;101456.00;5082045;28;20035;-69
2023/08/12 04:32:47;;;;;;;11.10;6.15;;;;;;;19.53;100.00;101455.75;5085950;28;20036;-69
2023/08/12 04:35:12;;;;;;;15.60;6.18;;;;;;;19.51;100.00;101447.06;5080114;28;20506;-69
2023/08/12 04:37:37;;;;;;;12.70;7.03;;;;;;;19.49;100.00;101443.75;5080044;28;20476;-69
2023/08/12 04:40:04;;;;;;;13.00;7.75;;;;;;;19.50;100.00;101448.13;5078511;28;20033;-69
2023/08/12 04:42:30;;;;;;;15.48;9.35;;;;;;;19.47;100.00;101441.31;5076100;28;20047;-69
2023/08/12 04:44:55;;;;;;;16.10;7.95;;;;;;;19.49;100.00;101452.72;5070674;28;20032;-69
2023/08/12 04:47:21;;;;;;;19.92;8.88;;;;;;;19.47;100.00;101445.91;5082813;28;20154;-69
2023/08/12 04:49:46;;;;;;;15.65;8.32;;;;;;;19.45;100.00;101450.75;5074799;28;20028;-69
2023/08/12 04:52:12;;;;;;;16.40;8.43;;;;;;;19.40;100.00;101443.34;5078466;28;20037;-69
2023/08/12 04:54:37;;;;;;;16.63;9.30;;;;;;;19.43;100.00;101450.16;5069510;28;20459;-69
2023/08/12 04:57:02;;;;;;;15.98;9.38;;;;;;;19.41;100.00;101445.00;5074934;28;20032;-69
2023/08/12 04:59:28;;;;;;;13.98;8.63;;;;;;;19.38;100.00;101444.63;5069524;28;20028;-69
2023/08/12 05:01:53;;;;;;;15.00;8.00;;;;;;;19.36;100.00;101436.78;5073345;28;20043;-69
2023/08/12 05:04:18;;;;;;;15.68;8.77;;;;;;;19.38;100.00;101434.63;5074022;28;20077;-69
2023/08/12 05:06:44;;;;;;;18.02;9.70;;;;;;;19.35;100.00;101437.00;5083452;28;20028;-69
2023/08/12 05:09:09;;;;;;;17.42;9.27;;;;;;;19.34;100.00;101438.09;5082338;28;20028;-69
2023/08/12 05:11:35;;;;;;;19.98;9.63;;;;;;;19.33;100.00;101426.41;5072454;28;20119;-69
2023/08/12 05:14:00;;;;;;;17.10;11.00;;;;;;;19.33;100.00;101437.25;5069436;28;20391;-69
2023/08/12 05:16:25;;;;;;;16.95;9.75;;;;;;;19.30;100.00;101423.38;5087601;28;20111;-69
2023/08/12 05:18:51;;;;;;;16.83;9.55;;;;;;;19.30;100.00;101417.97;5077720;28;20460;-69
2023/08/12 05:21:17;;;;;;;19.15;8.63;;;;;;;19.24;100.00;101415.16;5077394;28;20037;-69
2023/08/12 05:23:42;;;;;;;13.10;8.10;;;;;;;19.18;100.00;101418.03;5079711;28;20139;-69
2023/08/12 05:26:07;;;;;;;14.15;8.48;;;;;;;19.10;100.00;101415.69;5080132;28;20464;-69
2023/08/12 05:28:33;;;;;;;18.10;8.32;;;;;;;19.04;100.00;101401.25;5073957;28;20399;-69
2023/08/12 05:30:58;;;;;;;12.23;6.50;;;;;;;18.98;100.00;101404.91;5079526;28;20032;-68
2023/08/12 05:33:24;;;;;;;15.07;7.85;;;;;;;18.99;100.00;101406.53;5078001;28;20042;-68
2023/08/12 05:35:49;;;;;;;15.05;7.68;;;;;;;18.96;100.00;101421.34;5075230;28;20382;-68
2023/08/12 05:38:15;;;;;;;13.82;6.80;;;;;;;18.95;100.00;101425.13;5081741;28;20109;-68
2023/08/12 05:40:41;;;;;;;13.90;6.88;;;;;;;18.91;100.00;101409.63;5079580;28;20067;-68
2023/08/12 05:43:07;;;;;;;13.55;6.13;;;;;;;18.91;100.00;101399.63;5079211;28;20159;-68
2023/08/12 05:45:32;;;;;;;14.50;6.97;;;;;;;18.92;100.00;101400.47;5074134;28;20074;-68
2023/08/12 05:47:57;;;;;;;11.45;5.97;;;;;;;18.94;100.00;101409.13;5078256;28;20954;-68
2023/08/12 05:50:23;;;;;;;10.30;6.38;;;;;;;18.90;100.00;101410.69;5078617;28;20034;-68
2023/08/12 05:52:48;;;;;;;15.48;6.57;;;;;;;18.88;100.00;101418.22;5081513;28;20579;-68
2023/08/12 05:55:14;;;;;;;12.07;6.70;;;;;;;18.85;100.00;101413.28;5073516;28;20028;-68
2023/08/12 05:57:39;;;;;;;11.38;6.75;;;;;;;18.87;100.00;101419.28;5087643;28;20034;-68
2023/08/12 06:00:06;;;;;;;11.68;6.25;;;;;;;18.87;100.00;101417.41;5084335;28;20421;-68
2023/08/12 06:02:31;;;;;;;15.10;6.82;;;;;;;18.85;100.00;101405.19;5085434;28;20032;-68
2023/08/12 06:04:57;;;;;;;11.43;6.68;;;;;;;18.88;100.00;101407.41;5081068;28;20036;-69
2023/08/12 06:07:23;;;;;;;11.75;5.75;;;;;;;18.89;100.00;101403.63;5084375;28;20047;-69
2023/08/12 06:09:49;;;;;;;10.27;6.18;;;;;;;18.87;100.00;101394.97;5087188;28;20562;-69
2023/08/12 06:12:14;;;;;;;13.55;7.00;;;;;;;18.89;100.00;101392.81;5077077;28;20040;-69
2023/08/12 06:14:40;;;;;;;10.98;6.15;;;;;;;18.95;100.00;101394.56;5087112;28;20107;-69
2023/08/12 06:17:05;;;;;;;9.98;5.20;;;;;;;18.94;100.00;101380.25;5089363;28;20031;-68
2023/08/12 06:19:31;;;;;;;10.18;6.45;;;;;;;18.93;100.00;101383.19;5084942;28;20403;-68
2023/08/12 06:21:56;;;;;;;11.90;6.15;;;;;;;18.96;100.00;101393.50;5080460;28;20179;-68
2023/08/12 06:24:22;;;;;;;7.90;4.72;;;;;;;18.97;100.00;101392.47;5077840;28;20110;-68
2023/08/12 06:26:47;;;;;;;9.40;5.15;;;;;;;18.96;100.00;101388.91;5078173;28;20043;-68
2023/08/12 06:29:12;;;;;;;8.57;5.35;;;;;;;18.96;100.00;101386.22;5084487;28;20119;-68
2023/08/12 06:31:38;;;;;;;7.32;4.28;;;;;;;18.99;100.00;101379.50;5085408;28;20036;-68
2023/08/12 06:34:03;;;;;;;8.20;4.93;;;;;;;19.01;100.00;101377.38;5081669;28;20028;-68
2023/08/12 06:36:28;;;;;;;8.27;4.65;;;;;;;19.02;100.00;101366.34;5088992;28;20111;-69
2023/08/12 06:38:54;;;;;;;9.82;4.45;;;;;;;19.00;100.00;101371.16;5079024;28;20048;-68
2023/08/12 06:41:19;;;;;;;6.00;4.50;;;;;;;19.05;100.00;101371.28;5083022;28;20442;-68
2023/08/12 06:43:44;;;;;;;5.38;3.90;;;;;;;19.09;100.00;101368.09;5075935;28;20389;-68
2023/08/12 06:46:10;;;;;;;9.10;4.70;;;;;;;19.10;100.00;101369.72;5075455;28;20025;-68
2023/08/12 06:48:35;;;;;;;7.47;4.30;;;;;;;19.08;100.00;101374.56;5074467;28;20475;-67
2023/08/12 06:51:04;;;;;;;7.60;3.92;;;;;;;19.05;100.00;101370.47;5072371;28;20044;-69
2023/08/12 06:53:29;;;;;;;8.70;3.88;;;;;;;19.07;100.00;101362.91;5075144;28;20073;-68
2023/08/12 06:55:55;;;;;;;11.55;4.18;;;;;;;19.11;100.00;101363.25;5073812;28;20032;-68
2023/08/12 06:58:21;;;;;;;6.28;3.88;;;;;;;19.10;100.00;101359.75;5074179;28;20379;-68
2023/08/12 07:00:46;;;;;;;4.70;3.35;;;;;;;19.14;100.00;101350.06;5073958;28;20036;-68
2023/08/12 07:03:11;;;;;;;5.30;3.67;;;;;;;19.17;100.00;101351.47;5073941;28;20019;-68
2023/08/12 07:05:37;;;;;;;7.18;3.38;;;;;;;19.18;100.00;101351.25;5073161;28;20691;-68
2023/08/12 07:08:02;;;;;;;6.28;3.60;;;;;;;19.20;100.00;101345.56;5074534;28;20052;-68
2023/08/12 07:10:28;;;;;;;4.75;3.35;;;;;;;19.26;100.00;101347.31;5074602;28;20044;-68
2023/08/12 07:12:53;;;;;;;5.95;3.25;;;;;;;19.29;100.00;101346.84;5074071;28;20032;-68
2023/08/12 07:15:19;;;;;;;4.45;3.03;;;;;;;19.33;100.00;101344.47;5072449;28;20064;-68
2023/08/12 07:17:44;;;;;;;6.28;3.38;;;;;;;19.37;100.00;101351.03;5072967;28;20028;-68
2023/08/12 07:20:10;;;;;;;5.13;3.28;;;;;;;19.42;100.00;101343.00;5072188;28;20025;-69
2023/08/12 07:22:35;;;;;;;6.20;4.22;;;;;;;19.47;100.00;101343.91;5074383;28;20103;-68
2023/08/12 07:25:01;;;;;;;6.05;3.20;;;;;;;19.43;100.00;101325.72;5072257;28;20797;-69
2023/08/12 07:27:27;;;;;;;5.50;3.53;;;;;;;19.53;100.00;101339.41;5073888;28;20033;-69
2023/08/12 07:29:52;;;;;;;5.55;3.63;;;;;;;19.51;100.00;101340.72;5075365;28;20035;-70
2023/08/12 07:32:18;;;;;;;6.53;3.58;;;;;;;19.48;100.00;101342.03;5075854;28;20044;-70
2023/08/12 07:34:44;;;;;;;7.32;4.68;;;;;;;19.49;100.00;101349.06;5074158;28;20028;-70
2023/08/12 07:37:09;;;;;;;6.15;4.03;;;;;;;19.45;100.00;101340.63;5072020;28;20023;-70
2023/08/12 07:39:35;;;;;;;8.02;4.88;;;;;;;19.44;100.00;101340.88;5073765;28;20078;-67
2023/08/12 07:42:00;;;;;;;6.43;4.60;;;;;;;19.46;100.00;101336.03;5075403;28;20028;-68
2023/08/12 07:44:26;;;;;;;8.27;4.32;;;;;;;19.49;100.00;101347.22;5074655;28;20107;-67
2023/08/12 07:46:51;;;;;;;9.02;4.00;;;;;;;19.50;100.00;101345.31;5074559;28;20043;-68
2023/08/12 07:49:16;;;;;;;6.93;4.63;;;;;;;19.54;100.00;101342.94;5073972;28;20028;-67
2023/08/12 07:51:42;;;;;;;8.00;4.20;;;;;;;19.55;100.00;101341.88;5074258;28;20415;-68
2023/08/12 07:54:07;;;;;;;5.80;4.53;;;;;;;19.57;100.00;101343.28;5074411;28;20487;-69
2023/08/12 07:56:32;;;;;;;6.53;4.60;;;;;;;19.58;100.00;101339.50;5072963;28;20076;-68
2023/08/12 07:58:58;;;;;;;6.13;4.63;;;;;;;19.65;100.00;101332.06;5073951;28;20059;-69
2023/08/12 08:01:23;;;;;;;6.18;4.45;;;;;;;19.71;100.00;101330.28;5074515;28;20063;-68
2023/08/12 08:03:49;;;;;;;6.95;4.82;;;;;;;19.77;100.00;101331.19;5074377;28;20055;-67
2023/08/12 08:06:14;;;;;;;7.35;4.70;;;;;;;19.79;100.00;101316.31;5071050;28;20028;-67
2023/08/12 08:08:39;;;;;;;5.78;4.25;;;;;;;19.80;100.00;101323.38;5073580;28;20051;-68
2023/08/12 08:11:05;;;;;;;5.38;4.30;;;;;;;19.79;100.00;101327.16;5072758;28;20032;-68
2023/08/12 08:13:30;;;;;;;5.70;4.75;;;;;;;19.83;100.00;101343.72;5071347;28;20060;-69
2023/08/12 08:15:56;;;;;;;5.32;4.40;;;;;;;19.83;100.00;101341.84;5071490;28;20156;-69
2023/08/12 08:18:21;;;;;;;6.75;3.88;;;;;;;19.84;100.00;101339.97;5072092;28;20038;-69
2023/08/12 08:20:47;;;;;;;7.57;4.50;;;;;;;19.93;100.00;101347.41;5073232;28;20042;-69
2023/08/12 08:23:12;;;;;;;4.60;3.60;;;;;;;19.95;100.00;101351.75;5073173;28;20020;-69
2023/08/12 08:25:37;;;;;;;5.38;3.90;;;;;;;19.97;100.00;101358.56;5072451;28;20087;-68
2023/08/12 08:28:03;;;;;;;6.68;4.03;;;;;;;20.04;100.00;101350.28;5070450;28;20043;-68
2023/08/12 08:30:29;;;;;;;7.00;3.95;;;;;;;20.05;100.00;101354.63;5076672;28;20032;-69
2023/08/12 08:32:54;;;;;;;6.78;4.05;;;;;;;20.09;100.00;101353.06;5072274;28;20028;-68
2023/08/12 08:35:19;;;;;;;5.40;4.07;;;;;;;20.08;100.00;101352.25;5073015;28;20028;-69
2023/08/12 08:37:45;;;;;;;5.32;3.92;;;;;;;20.03;100.00;101340.50;5073277;28;20052;-71
2023/08/12 08:40:10;;;;;;;4.82;3.15;;;;;;;20.06;100.00;101353.56;5073083;28;20512;-70
2023/08/12 08:42:37;;;;;;;3.83;3.08;;;;;;;20.04;100.00;101352.97;5070884;28;20085;-70
2023/08/12 08:45:05;;;;;;;3.70;3.15;;;;;;;20.14;100.00;101358.56;5073640;28;20527;-69
2023/08/12 08:47:30;;;;;;;3.33;3.03;;;;;;;20.24;100.00;101357.88;5072568;28;21096;-69
2023/08/12 08:49:57;;;;;;;4.55;3.22;;;;;;;20.34;100.00;101364.28;5072050;28;20111;-70
2023/08/12 08:52:26;;;;;;;3.92;3.28;;;;;;;20.34;100.00;101372.41;5072484;28;20043;-69
2023/08/12 08:54:51;;;;;;;6.10;3.33;;;;;;;20.33;100.00;101369.91;5072214;28;20584;-69
2023/08/12 08:57:19;;;;;;;4.70;3.70;;;;;;;20.39;100.00;101378.97;5072748;28;20100;-69
2023/08/12 08:59:44;;;;;;;7.10;4.43;;;;;;;20.37;100.00;101384.63;5072709;28;20025;-69
2023/08/12 09:02:16;;;;;;;7.00;4.35;;;;;;;20.35;100.00;101392.19;5072073;28;20032;-68
2023/08/12 09:04:42;;;;;;;7.20;4.40;;;;;;;20.32;100.00;101387.25;5073182;28;20032;-69
2023/08/12 09:07:08;;;;;;;5.57;4.47;;;;;;;20.26;100.00;101385.56;5072778;28;20127;-69
2023/08/12 09:09:35;;;;;;;6.50;4.57;;;;;;;20.23;100.00;101377.94;5074120;28;20447;-68
2023/08/12 09:12:01;;;;;;;5.72;3.90;;;;;;;20.22;100.00;101387.09;5073224;28;20028;-68
2023/08/12 09:14:27;;;;;;;5.13;3.33;;;;;;;20.23;100.00;101377.94;5072972;28;20043;-69
2023/08/12 09:16:52;;;;;;;5.00;3.72;;;;;;;20.18;100.00;101378.66;5072048;28;20028;-69
2023/08/12 09:19:17;;;;;;;5.25;4.13;;;;;;;20.18;100.00;101385.97;5072685;28;20048;-69
2023/08/12 09:21:43;;;;;;;5.35;4.30;;;;;;;20.28;100.00;101395.06;5072587;28;20032;-69
2023/08/12 09:24:08;;;;;;;4.78;3.97;;;;;;;20.29;100.00;101399.41;5071515;28;20020;-69
2023/08/12 09:26:34;;;;;;;7.57;3.88;;;;;;;20.39;100.00;101398.75;5070817;28;20039;-69
2023/08/12 09:29:00;;;;;;;5.95;4.28;;;;;;;20.44;100.00;101400.72;5079817;28;20020;-69
2023/08/12 09:31:29;;;;;;;7.68;4.28;;;;;;;20.46;100.00;101404.81;5073469;28;20119;-69
2023/08/12 09:33:59;;;;;;;5.53;3.42;;;;;;;20.43;100.00;101413.41;5076365;28;20036;-69
2023/08/12 09:36:28;;;;;;;5.35;3.47;;;;;;;20.31;100.00;101421.66;5076360;28;20033;-69
2023/08/12 09:38:53;;;;;;;5.32;3.63;;;;;;;20.23;100.00;101429.41;5074601;28;20052;-69
2023/08/12 09:41:18;;;;;;;5.80;3.80;;;;;;;20.19;100.00;101422.81;5075937;28;20034;-69
2023/08/12 09:43:44;;;;;;;3.13;2.80;;;;;;;20.18;100.00;101413.06;5074780;28;20487;-69
2023/08/12 09:46:16;;;;;;;4.90;3.90;;;;;;;20.42;100.00;101419.09;5074172;28;20028;-69
2023/08/12 09:48:41;;;;;;;4.22;3.63;;;;;;;20.63;100.00;101409.41;5075938;28;20135;-69
2023/08/12 09:51:07;;;;;;;6.00;3.30;;;;;;;20.82;100.00;101413.44;5075391;28;20118;-68
2023/08/12 09:53:33;;;;;;;3.47;2.72;;;;;;;21.01;100.00;101427.50;5075045;28;20072;-69
2023/08/12 09:56:06;;;;;;;3.13;2.70;;;;;;;21.02;100.00;101419.13;5075724;28;20692;-69
2023/08/12 09:58:32;;;;;;;3.00;2.30;;;;;;;20.95;100.00;101423.09;5075327;28;20079;-68
2023/08/12 10:00:59;;;;;;;2.72;2.42;;;;;;;20.93;100.00;101427.97;5074154;28;20166;-68
2023/08/12 10:03:25;;;;;;;3.58;2.72;;;;;;;20.90;100.00;101428.47;5076994;28;20067;-68
2023/08/12 10:05:52;;;;;;;3.30;2.55;;;;;;;20.87;100.00;101431.69;5074354;28;20052;-69
2023/08/12 10:08:18;;;;;;;4.32;2.80;;;;;;;20.80;100.00;101429.16;5074245;28;20143;-68
2023/08/12 10:10:44;;;;;;;3.80;3.45;;;;;;;20.68;100.00;101439.31;5076442;28;20053;-68
2023/08/12 10:13:11;;;;;;;4.05;2.92;;;;;;;20.59;100.00;101447.00;5074597;28;20055;-68
2023/08/12 10:15:37;;;;;;;5.50;3.20;;;;;;;20.70;100.00;101450.72;5074444;28;20025;-69
2023/08/12 10:18:05;;;;;;;6.93;3.05;;;;;;;20.96;100.00;101444.56;5074785;28;20039;-70
2023/08/12 10:20:31;;;;;;;5.57;3.42;;;;;;;21.20;100.00;101455.16;5074413;28;20032;-68
2023/08/12 10:22:59;;;;;;;4.65;3.30;;;;;;;21.22;100.00;101455.72;5075623;28;20032;-69
2023/08/12 10:25:25;;;;;;;3.50;3.20;;;;;;;21.04;100.00;101456.88;5074837;28;20482;-69
2023/08/12 10:27:50;;;;;;;5.90;3.63;;;;;;;20.87;100.00;101446.06;5073853;28;20028;-69
2023/08/12 10:30:16;;;;;;;4.57;3.47;;;;;;;20.83;100.00;101447.66;5074118;28;20055;-69
2023/08/12 10:32:42;;;;;;;7.05;3.55;;;;;;;20.97;100.00;101456.22;5074146;28;20036;-70
2023/08/12 10:35:08;;;;;;;6.43;3.53;;;;;;;21.06;100.00;101448.47;5074628;28;20028;-69
2023/08/12 10:37:34;;;;;;;4.43;3.55;;;;;;;21.14;100.00;101443.44;5073837;28;20028;-69
2023/08/12 10:40:07;;;;;;;4.45;3.22;;;;;;;21.27;100.00;101439.50;5074131;28;20044;-69
2023/08/12 10:42:46;;;;;;;4.18;3.13;;;;;;;21.38;100.00;101446.72;5074661;28;20032;-70
2023/08/12 10:45:14;;;;;;;6.20;3.97;;;;;;;21.49;100.00;101436.81;5074164;28;20031;-70
2023/08/12 10:47:48;;;;;;;5.07;2.80;;;;;;;21.63;100.00;101439.91;5072784;28;20028;-69
2023/08/12 10:50:21;;;;;;;6.55;3.20;;;;;;;21.64;100.00;101442.38;5074984;28;20559;-70
2023/08/12 10:52:50;;;;;;;5.22;2.90;;;;;;;21.54;100.00;101446.91;5074168;28;20151;-71
2023/08/12 10:55:23;;;;;;;3.72;2.63;;;;;;;21.40;100.00;101441.03;5077859;28;20024;-70
2023/08/12 10:57:54;;;;;;;4.85;2.65;;;;;;;21.49;100.00;101453.09;5074882;28;20114;-70
2023/08/12 11:00:23;;;;;;;2.92;2.38;;;;;;;21.38;100.00;101452.16;5073713;28;20157;-70
2023/08/12 11:02:51;;;;;;;2.95;2.38;;;;;;;21.31;100.00;101458.81;5073110;28;20075;-70
2023/08/12 11:05:18;;;;;;;5.32;2.28;;;;;;;21.22;100.00;101458.41;5073936;28;20021;-70